sensor_id;sensor_type;location;lat;lon;timestamp;P1;durP1;ratioP1;P2;durP2;ratioP2
34978;SDS011;21185;50.978;13.720;2023-05-17T00:00:26;2.38;;;1.13;;
34978;SDS011;21185;50.978;13.720;2023-05-17T00:05:28;2.65;;;1.02;;
34978;SDS011;21185;50.978;13.720;2023-05-17T00:10:30;2.83;;;1.05;;
34978;SDS011;21185;50.978;13.720;2023-05-17T00:15:32;3.58;;;1.30;;
34978;SDS011;21185;50.978;13.720;2023-05-17T00:20:34;2.50;;;0.80;;
34978;SDS011;21185;50.978;13.720;2023-05-17T00:25:36;1.20;;;0.80;;
34978;SDS011;21185;50.978;13.720;2023-05-17T00:30:38;0.93;;;0.70;;
34978;SDS011;21185;50.978;13.720;2023-05-17T00:35:40;4.07;;;0.80;;
34978;SDS011;21185;50.978;13.720;2023-05-17T00:40:42;5.72;;;1.10;;
34978;SDS011;21185;50.978;13.720;2023-05-17T00:45:44;3.55;;;0.98;;
34978;SDS011;21185;50.978;13.720;2023-05-17T00:50:48;4.85;;;0.93;;
34978;SDS011;21185;50.978;13.720;2023-05-17T00:55:50;1.45;;;0.80;;
34978;SDS011;21185;50.978;13.720;2023-05-17T01:00:55;2.67;;;1.13;;
34978;SDS011;21185;50.978;13.720;2023-05-17T01:05:57;0.88;;;0.55;;
34978;SDS011;21185;50.978;13.720;2023-05-17T01:11:17;1.88;;;0.95;;
34978;SDS011;21185;50.978;13.720;2023-05-17T01:16:46;1.17;;;0.70;;
34978;SDS011;21185;50.978;13.720;2023-05-17T01:22:04;3.97;;;0.90;;
34978;SDS011;21185;50.978;13.720;2023-05-17T01:27:29;1.83;;;0.60;;
34978;SDS011;21185;50.978;13.720;2023-05-17T01:32:33;3.45;;;1.05;;
34978;SDS011;21185;50.978;13.720;2023-05-17T01:37:36;1.13;;;0.85;;
34978;SDS011;21185;50.978;13.720;2023-05-17T01:42:40;4.10;;;0.70;;
34978;SDS011;21185;50.978;13.720;2023-05-17T01:47:49;4.82;;;0.82;;
34978;SDS011;21185;50.978;13.720;2023-05-17T01:52:54;2.35;;;1.13;;
34978;SDS011;21185;50.978;13.720;2023-05-17T01:58:05;5.13;;;0.90;;
34978;SDS011;21185;50.978;13.720;2023-05-17T02:03:16;2.22;;;1.02;;
34978;SDS011;21185;50.978;13.720;2023-05-17T02:08:18;1.88;;;1.30;;
34978;SDS011;21185;50.978;13.720;2023-05-17T02:13:21;3.25;;;1.98;;
34978;SDS011;21185;50.978;13.720;2023-05-17T02:18:23;5.65;;;0.95;;
34978;SDS011;21185;50.978;13.720;2023-05-17T02:23:25;6.18;;;1.00;;
34978;SDS011;21185;50.978;13.720;2023-05-17T02:28:27;2.08;;;1.23;;
34978;SDS011;21185;50.978;13.720;2023-05-17T02:33:29;8.43;;;1.77;;
34978;SDS011;21185;50.978;13.720;2023-05-17T02:38:31;6.57;;;1.35;;
34978;SDS011;21185;50.978;13.720;2023-05-17T02:43:33;8.52;;;2.05;;
34978;SDS011;21185;50.978;13.720;2023-05-17T02:48:37;1.75;;;1.10;;
34978;SDS011;21185;50.978;13.720;2023-05-17T02:53:39;1.35;;;1.08;;
34978;SDS011;21185;50.978;13.720;2023-05-17T02:58:41;1.05;;;0.95;;
34978;SDS011;21185;50.978;13.720;2023-05-17T03:03:43;6.90;;;1.58;;
34978;SDS011;21185;50.978;13.720;2023-05-17T03:08:45;5.15;;;1.30;;
34978;SDS011;21185;50.978;13.720;2023-05-17T03:13:47;8.30;;;1.60;;
34978;SDS011;21185;50.978;13.720;2023-05-17T03:18:55;2.35;;;1.30;;
34978;SDS011;21185;50.978;13.720;2023-05-17T03:23:58;3.55;;;1.40;;
34978;SDS011;21185;50.978;13.720;2023-05-17T03:29:00;1.77;;;1.00;;
34978;SDS011;21185;50.978;13.720;2023-05-17T03:34:03;2.13;;;1.10;;
34978;SDS011;21185;50.978;13.720;2023-05-17T03:39:05;5.50;;;1.67;;
34978;SDS011;21185;50.978;13.720;2023-05-17T03:44:09;3.65;;;1.58;;
34978;SDS011;21185;50.978;13.720;2023-05-17T03:49:11;2.72;;;1.38;;
34978;SDS011;21185;50.978;13.720;2023-05-17T03:54:14;4.72;;;1.80;;
34978;SDS011;21185;50.978;13.720;2023-05-17T03:59:18;2.53;;;1.25;;
34978;SDS011;21185;50.978;13.720;2023-05-17T04:04:21;5.70;;;1.40;;
34978;SDS011;21185;50.978;13.720;2023-05-17T04:09:23;3.75;;;1.40;;
34978;SDS011;21185;50.978;13.720;2023-05-17T04:14:27;2.53;;;1.38;;
34978;SDS011;21185;50.978;13.720;2023-05-17T04:19:29;4.68;;;1.10;;
34978;SDS011;21185;50.978;13.720;2023-05-17T04:24:32;5.47;;;1.60;;
34978;SDS011;21185;50.978;13.720;2023-05-17T04:29:34;4.82;;;1.90;;
34978;SDS011;21185;50.978;13.720;2023-05-17T04:34:37;11.00;;;1.75;;
34978;SDS011;21185;50.978;13.720;2023-05-17T04:39:39;7.63;;;1.80;;
34978;SDS011;21185;50.978;13.720;2023-05-17T04:44:42;9.68;;;2.13;;
34978;SDS011;21185;50.978;13.720;2023-05-17T04:49:44;5.57;;;1.60;;
34978;SDS011;21185;50.978;13.720;2023-05-17T04:54:46;5.88;;;1.75;;
34978;SDS011;21185;50.978;13.720;2023-05-17T04:59:48;3.72;;;1.88;;
34978;SDS011;21185;50.978;13.720;2023-05-17T05:04:51;7.55;;;1.50;;
34978;SDS011;21185;50.978;13.720;2023-05-17T05:09:53;3.50;;;1.48;;
34978;SDS011;21185;50.978;13.720;2023-05-17T05:14:57;6.95;;;1.95;;
34978;SDS011;21185;50.978;13.720;2023-05-17T05:20:01;8.10;;;2.58;;
34978;SDS011;21185;50.978;13.720;2023-05-17T05:25:04;8.32;;;2.10;;
34978;SDS011;21185;50.978;13.720;2023-05-17T05:30:08;5.25;;;2.38;;
34978;SDS011;21185;50.978;13.720;2023-05-17T05:35:10;7.22;;;1.80;;
34978;SDS011;21185;50.978;13.720;2023-05-17T05:40:13;7.75;;;2.10;;
34978;SDS011;21185;50.978;13.720;2023-05-17T05:45:16;3.55;;;1.42;;
34978;SDS011;21185;50.978;13.720;2023-05-17T05:50:23;3.80;;;1.25;;
34978;SDS011;21185;50.978;13.720;2023-05-17T05:55:29;9.77;;;1.70;;
34978;SDS011;21185;50.978;13.720;2023-05-17T06:00:31;10.30;;;2.28;;
34978;SDS011;21185;50.978;13.720;2023-05-17T06:05:36;7.75;;;2.38;;
34978;SDS011;21185;50.978;13.720;2023-05-17T06:10:39;6.18;;;2.28;;
34978;SDS011;21185;50.978;13.720;2023-05-17T06:15:41;6.40;;;2.78;;
34978;SDS011;21185;50.978;13.720;2023-05-17T06:20:43;11.02;;;2.33;;
34978;SDS011;21185;50.978;13.720;2023-05-17T06:25:46;6.25;;;2.83;;
34978;SDS011;21185;50.978;13.720;2023-05-17T06:30:49;10.52;;;3.22;;
34978;SDS011;21185;50.978;13.720;2023-05-17T06:35:51;6.55;;;2.40;;
34978;SDS011;21185;50.978;13.720;2023-05-17T06:40:57;5.38;;;2.55;;
34978;SDS011;21185;50.978;13.720;2023-05-17T06:45:59;13.43;;;2.15;;
34978;SDS011;21185;50.978;13.720;2023-05-17T06:51:02;8.02;;;2.90;;
34978;SDS011;21185;50.978;13.720;2023-05-17T06:56:04;7.88;;;2.28;;
34978;SDS011;21185;50.978;13.720;2023-05-17T07:01:06;11.40;;;2.55;;
34978;SDS011;21185;50.978;13.720;2023-05-17T07:06:08;6.88;;;3.72;;
34978;SDS011;21185;50.978;13.720;2023-05-17T07:11:13;9.77;;;3.05;;
34978;SDS011;21185;50.978;13.720;2023-05-17T07:16:15;7.70;;;2.53;;
34978;SDS011;21185;50.978;13.720;2023-05-17T07:21:17;5.60;;;2.40;;
34978;SDS011;21185;50.978;13.720;2023-05-17T07:26:19;5.40;;;2.10;;
34978;SDS011;21185;50.978;13.720;2023-05-17T07:31:21;4.60;;;2.58;;
34978;SDS011;21185;50.978;13.720;2023-05-17T07:36:23;8.40;;;2.65;;
34978;SDS011;21185;50.978;13.720;2023-05-17T07:41:28;14.82;;;2.72;;
34978;SDS011;21185;50.978;13.720;2023-05-17T07:46:29;7.25;;;2.10;;
34978;SDS011;21185;50.978;13.720;2023-05-17T07:51:32;7.20;;;2.72;;
34978;SDS011;21185;50.978;13.720;2023-05-17T07:56:36;7.45;;;2.08;;
34978;SDS011;21185;50.978;13.720;2023-05-17T08:01:38;9.32;;;2.78;;
34978;SDS011;21185;50.978;13.720;2023-05-17T08:06:40;4.93;;;2.35;;
34978;SDS011;21185;50.978;13.720;2023-05-17T08:11:43;13.45;;;3.28;;
34978;SDS011;21185;50.978;13.720;2023-05-17T08:16:46;11.25;;;2.10;;
34978;SDS011;21185;50.978;13.720;2023-05-17T08:21:48;7.70;;;2.78;;
34978;SDS011;21185;50.978;13.720;2023-05-17T08:26:50;9.18;;;2.63;;
34978;SDS011;21185;50.978;13.720;2023-05-17T08:31:53;7.88;;;2.38;;
34978;SDS011;21185;50.978;13.720;2023-05-17T08:36:57;5.82;;;2.05;;
34978;SDS011;21185;50.978;13.720;2023-05-17T08:41:59;8.32;;;2.40;;
34978;SDS011;21185;50.978;13.720;2023-05-17T08:47:03;9.00;;;2.00;;
34978;SDS011;21185;50.978;13.720;2023-05-17T08:52:05;10.93;;;2.22;;
34978;SDS011;21185;50.978;13.720;2023-05-17T08:57:10;5.93;;;2.10;;
34978;SDS011;21185;50.978;13.720;2023-05-17T09:02:15;6.35;;;2.45;;
34978;SDS011;21185;50.978;13.720;2023-05-17T09:07:17;6.47;;;2.30;;
34978;SDS011;21185;50.978;13.720;2023-05-17T09:12:21;9.00;;;2.45;;
34978;SDS011;21185;50.978;13.720;2023-05-17T09:17:26;3.97;;;1.63;;
34978;SDS011;21185;50.978;13.720;2023-05-17T09:22:28;8.65;;;2.50;;
34978;SDS011;21185;50.978;13.720;2023-05-17T09:27:30;6.60;;;2.47;;
34978;SDS011;21185;50.978;13.720;2023-05-17T09:32:32;12.02;;;2.30;;
34978;SDS011;21185;50.978;13.720;2023-05-17T09:37:34;3.80;;;1.73;;
34978;SDS011;21185;50.978;13.720;2023-05-17T09:42:38;4.78;;;1.90;;
34978;SDS011;21185;50.978;13.720;2023-05-17T09:47:41;8.77;;;2.00;;
34978;SDS011;21185;50.978;13.720;2023-05-17T09:52:43;3.00;;;1.67;;
34978;SDS011;21185;50.978;13.720;2023-05-17T09:57:46;3.92;;;2.10;;
34978;SDS011;21185;50.978;13.720;2023-05-17T10:02:49;7.93;;;2.30;;
34978;SDS011;21185;50.978;13.720;2023-05-17T10:07:52;5.97;;;2.03;;
34978;SDS011;21185;50.978;13.720;2023-05-17T10:12:57;9.35;;;2.30;;
34978;SDS011;21185;50.978;13.720;2023-05-17T10:18:01;12.13;;;2.80;;
34978;SDS011;21185;50.978;13.720;2023-05-17T10:23:04;9.45;;;2.20;;
34978;SDS011;21185;50.978;13.720;2023-05-17T10:28:08;9.93;;;1.75;;
34978;SDS011;21185;50.978;13.720;2023-05-17T10:33:12;4.10;;;1.50;;
34978;SDS011;21185;50.978;13.720;2023-05-17T10:38:17;6.55;;;1.73;;
34978;SDS011;21185;50.978;13.720;2023-05-17T10:43:22;4.25;;;2.05;;
34978;SDS011;21185;50.978;13.720;2023-05-17T10:48:26;4.03;;;1.48;;
34978;SDS011;21185;50.978;13.720;2023-05-17T10:53:31;4.70;;;1.58;;
34978;SDS011;21185;50.978;13.720;2023-05-17T10:58:33;7.05;;;1.85;;
34978;SDS011;21185;50.978;13.720;2023-05-17T11:03:35;4.88;;;1.35;;
34978;SDS011;21185;50.978;13.720;2023-05-17T11:08:42;3.47;;;1.30;;
34978;SDS011;21185;50.978;13.720;2023-05-17T11:18:54;8.50;;;1.80;;
34978;SDS011;21185;50.978;13.720;2023-05-17T11:23:59;11.75;;;2.00;;
34978;SDS011;21185;50.978;13.720;2023-05-17T11:29:08;3.45;;;0.93;;
34978;SDS011;21185;50.978;13.720;2023-05-17T11:34:11;4.10;;;1.13;;
34978;SDS011;21185;50.978;13.720;2023-05-17T11:39:14;1.77;;;0.60;;
34978;SDS011;21185;50.978;13.720;2023-05-17T11:44:23;4.95;;;1.08;;
34978;SDS011;21185;50.978;13.720;2023-05-17T11:49:36;5.18;;;1.13;;
34978;SDS011;21185;50.978;13.720;2023-05-17T11:54:39;6.30;;;1.10;;
34978;SDS011;21185;50.978;13.720;2023-05-17T11:59:43;6.45;;;1.13;;
34978;SDS011;21185;50.978;13.720;2023-05-17T12:04:45;8.00;;;1.23;;
34978;SDS011;21185;50.978;13.720;2023-05-17T12:09:47;6.70;;;1.58;;
34978;SDS011;21185;50.978;13.720;2023-05-17T12:14:49;7.05;;;1.15;;
34978;SDS011;21185;50.978;13.720;2023-05-17T12:19:52;4.40;;;1.23;;
34978;SDS011;21185;50.978;13.720;2023-05-17T12:24:55;5.25;;;1.23;;
34978;SDS011;21185;50.978;13.720;2023-05-17T12:29:57;4.20;;;1.08;;
34978;SDS011;21185;50.978;13.720;2023-05-17T12:34:58;3.67;;;1.17;;
34978;SDS011;21185;50.978;13.720;2023-05-17T12:40:00;5.75;;;1.42;;
34978;SDS011;21185;50.978;13.720;2023-05-17T12:45:05;7.10;;;1.50;;
34978;SDS011;21185;50.978;13.720;2023-05-17T12:50:07;4.43;;;1.50;;
34978;SDS011;21185;50.978;13.720;2023-05-17T12:55:11;5.30;;;1.35;;
34978;SDS011;21185;50.978;13.720;2023-05-17T13:00:14;4.20;;;1.10;;
34978;SDS011;21185;50.978;13.720;2023-05-17T13:05:16;5.35;;;1.15;;
34978;SDS011;21185;50.978;13.720;2023-05-17T13:10:25;6.50;;;1.10;;
34978;SDS011;21185;50.978;13.720;2023-05-17T13:15:29;5.10;;;1.00;;
34978;SDS011;21185;50.978;13.720;2023-05-17T13:20:33;8.75;;;1.50;;
34978;SDS011;21185;50.978;13.720;2023-05-17T13:25:34;4.07;;;1.15;;
34978;SDS011;21185;50.978;13.720;2023-05-17T13:30:37;8.73;;;1.42;;
34978;SDS011;21185;50.978;13.720;2023-05-17T13:35:40;7.57;;;1.40;;
34978;SDS011;21185;50.978;13.720;2023-05-17T13:40:42;4.15;;;1.17;;
34978;SDS011;21185;50.978;13.720;2023-05-17T13:45:44;3.20;;;1.13;;
34978;SDS011;21185;50.978;13.720;2023-05-17T13:50:46;8.15;;;0.98;;
34978;SDS011;21185;50.978;13.720;2023-05-17T13:55:48;5.25;;;1.20;;
34978;SDS011;21185;50.978;13.720;2023-05-17T14:00:50;4.72;;;1.35;;
34978;SDS011;21185;50.978;13.720;2023-05-17T14:05:53;4.60;;;1.13;;
34978;SDS011;21185;50.978;13.720;2023-05-17T14:10:55;3.65;;;1.73;;
34978;SDS011;21185;50.978;13.720;2023-05-17T14:15:57;3.42;;;1.20;;
34978;SDS011;21185;50.978;13.720;2023-05-17T14:20:59;3.80;;;1.45;;
34978;SDS011;21185;50.978;13.720;2023-05-17T14:26:02;2.80;;;1.08;;
34978;SDS011;21185;50.978;13.720;2023-05-17T14:31:08;10.27;;;1.60;;
34978;SDS011;21185;50.978;13.720;2023-05-17T14:36:12;6.85;;;1.23;;
34978;SDS011;21185;50.978;13.720;2023-05-17T14:41:14;5.05;;;1.10;;
34978;SDS011;21185;50.978;13.720;2023-05-17T14:46:21;3.92;;;1.45;;
34978;SDS011;21185;50.978;13.720;2023-05-17T14:51:24;4.25;;;1.13;;
34978;SDS011;21185;50.978;13.720;2023-05-17T14:56:27;6.15;;;1.13;;
34978;SDS011;21185;50.978;13.720;2023-05-17T15:01:29;3.83;;;1.25;;
34978;SDS011;21185;50.978;13.720;2023-05-17T15:06:31;3.40;;;1.20;;
34978;SDS011;21185;50.978;13.720;2023-05-17T15:11:33;3.25;;;0.98;;
34978;SDS011;21185;50.978;13.720;2023-05-17T15:16:35;4.63;;;1.10;;
34978;SDS011;21185;50.978;13.720;2023-05-17T15:21:37;5.30;;;1.70;;
34978;SDS011;21185;50.978;13.720;2023-05-17T15:26:40;2.78;;;0.93;;
34978;SDS011;21185;50.978;13.720;2023-05-17T15:31:42;2.50;;;1.50;;
34978;SDS011;21185;50.978;13.720;2023-05-17T15:36:46;2.83;;;1.02;;
34978;SDS011;21185;50.978;13.720;2023-05-17T15:41:48;5.68;;;0.90;;
34978;SDS011;21185;50.978;13.720;2023-05-17T15:46:52;0.70;;;0.65;;
34978;SDS011;21185;50.978;13.720;2023-05-17T15:51:54;4.10;;;1.58;;
34978;SDS011;21185;50.978;13.720;2023-05-17T15:56:56;1.80;;;0.82;;
34978;SDS011;21185;50.978;13.720;2023-05-17T16:01:58;10.55;;;1.33;;
34978;SDS011;21185;50.978;13.720;2023-05-17T16:07:00;4.47;;;1.40;;
34978;SDS011;21185;50.978;13.720;2023-05-17T16:12:02;3.35;;;1.05;;
34978;SDS011;21185;50.978;13.720;2023-05-17T16:17:05;11.50;;;2.33;;
34978;SDS011;21185;50.978;13.720;2023-05-17T16:22:07;8.90;;;1.77;;
34978;SDS011;21185;50.978;13.720;2023-05-17T16:27:10;11.93;;;1.35;;
34978;SDS011;21185;50.978;13.720;2023-05-17T16:32:12;3.20;;;1.00;;
34978;SDS011;21185;50.978;13.720;2023-05-17T16:37:14;5.75;;;1.30;;
34978;SDS011;21185;50.978;13.720;2023-05-17T16:42:16;5.63;;;1.15;;
34978;SDS011;21185;50.978;13.720;2023-05-17T16:47:18;3.70;;;2.13;;
34978;SDS011;21185;50.978;13.720;2023-05-17T16:52:25;5.28;;;1.00;;
34978;SDS011;21185;50.978;13.720;2023-05-17T16:57:29;5.50;;;1.15;;
34978;SDS011;21185;50.978;13.720;2023-05-17T17:02:32;9.70;;;1.67;;
34978;SDS011;21185;50.978;13.720;2023-05-17T17:07:34;1.00;;;0.70;;
34978;SDS011;21185;50.978;13.720;2023-05-17T17:12:36;3.42;;;1.02;;
34978;SDS011;21185;50.978;13.720;2023-05-17T17:17:38;6.03;;;2.20;;
34978;SDS011;21185;50.978;13.720;2023-05-17T17:22:41;3.70;;;1.42;;
34978;SDS011;21185;50.978;13.720;2023-05-17T17:27:43;6.70;;;1.17;;
34978;SDS011;21185;50.978;13.720;2023-05-17T17:32:45;2.97;;;1.08;;
34978;SDS011;21185;50.978;13.720;2023-05-17T17:37:48;6.20;;;2.08;;
34978;SDS011;21185;50.978;13.720;2023-05-17T17:42:50;2.63;;;0.90;;
34978;SDS011;21185;50.978;13.720;2023-05-17T17:47:53;2.88;;;0.90;;
34978;SDS011;21185;50.978;13.720;2023-05-17T17:52:57;8.23;;;1.15;;
34978;SDS011;21185;50.978;13.720;2023-05-17T17:57:59;2.92;;;0.85;;
34978;SDS011;21185;50.978;13.720;2023-05-17T18:03:01;3.05;;;1.00;;
34978;SDS011;21185;50.978;13.720;2023-05-17T18:08:04;4.00;;;1.10;;
34978;SDS011;21185;50.978;13.720;2023-05-17T18:13:10;1.58;;;0.98;;
34978;SDS011;21185;50.978;13.720;2023-05-17T18:18:12;3.33;;;1.25;;
34978;SDS011;21185;50.978;13.720;2023-05-17T18:23:14;3.30;;;1.45;;
34978;SDS011;21185;50.978;13.720;2023-05-17T18:28:16;8.15;;;2.20;;
34978;SDS011;21185;50.978;13.720;2023-05-17T18:33:27;3.45;;;1.27;;
34978;SDS011;21185;50.978;13.720;2023-05-17T18:38:29;2.75;;;1.38;;
34978;SDS011;21185;50.978;13.720;2023-05-17T18:43:31;2.25;;;1.10;;
34978;SDS011;21185;50.978;13.720;2023-05-17T18:48:33;5.25;;;1.58;;
34978;SDS011;21185;50.978;13.720;2023-05-17T18:53:37;4.40;;;1.33;;
34978;SDS011;21185;50.978;13.720;2023-05-17T18:58:39;5.40;;;1.80;;
34978;SDS011;21185;50.978;13.720;2023-05-17T19:03:41;4.82;;;1.63;;
34978;SDS011;21185;50.978;13.720;2023-05-17T19:08:43;7.50;;;2.28;;
34978;SDS011;21185;50.978;13.720;2023-05-17T19:13:45;4.75;;;2.03;;
34978;SDS011;21185;50.978;13.720;2023-05-17T19:18:49;6.82;;;1.40;;
34978;SDS011;21185;50.978;13.720;2023-05-17T19:23:52;12.85;;;3.35;;
34978;SDS011;21185;50.978;13.720;2023-05-17T19:28:54;10.02;;;2.72;;
34978;SDS011;21185;50.978;13.720;2023-05-17T19:33:56;6.10;;;1.98;;
34978;SDS011;21185;50.978;13.720;2023-05-17T19:39:01;5.88;;;1.70;;
34978;SDS011;21185;50.978;13.720;2023-05-17T19:44:02;5.90;;;1.90;;
34978;SDS011;21185;50.978;13.720;2023-05-17T19:49:07;2.67;;;1.50;;
34978;SDS011;21185;50.978;13.720;2023-05-17T19:54:10;6.10;;;1.42;;
34978;SDS011;21185;50.978;13.720;2023-05-17T19:59:15;4.68;;;1.40;;
34978;SDS011;21185;50.978;13.720;2023-05-17T20:04:17;6.20;;;1.40;;
34978;SDS011;21185;50.978;13.720;2023-05-17T20:09:19;3.60;;;1.65;;
34978;SDS011;21185;50.978;13.720;2023-05-17T20:14:21;4.15;;;1.65;;
34978;SDS011;21185;50.978;13.720;2023-05-17T20:19:23;6.15;;;1.58;;
34978;SDS011;21185;50.978;13.720;2023-05-17T20:24:27;7.93;;;1.90;;
34978;SDS011;21185;50.978;13.720;2023-05-17T20:29:29;4.82;;;1.38;;
34978;SDS011;21185;50.978;13.720;2023-05-17T20:34:33;2.60;;;1.10;;
34978;SDS011;21185;50.978;13.720;2023-05-17T20:39:35;5.85;;;1.30;;
34978;SDS011;21185;50.978;13.720;2023-05-17T20:44:38;5.13;;;0.85;;
34978;SDS011;21185;50.978;13.720;2023-05-17T20:49:44;4.70;;;1.92;;
34978;SDS011;21185;50.978;13.720;2023-05-17T20:54:46;8.57;;;1.75;;
34978;SDS011;21185;50.978;13.720;2023-05-17T20:59:50;7.97;;;2.10;;
34978;SDS011;21185;50.978;13.720;2023-05-17T21:04:53;2.45;;;1.30;;
34978;SDS011;21185;50.978;13.720;2023-05-17T21:09:55;4.68;;;1.10;;
34978;SDS011;21185;50.978;13.720;2023-05-17T21:14:57;4.47;;;1.00;;
34978;SDS011;21185;50.978;13.720;2023-05-17T21:20:16;2.60;;;1.40;;
34978;SDS011;21185;50.978;13.720;2023-05-17T21:25:19;6.63;;;1.77;;
34978;SDS011;21185;50.978;13.720;2023-05-17T21:30:21;3.28;;;1.25;;
34978;SDS011;21185;50.978;13.720;2023-05-17T21:35:25;6.70;;;1.17;;
34978;SDS011;21185;50.978;13.720;2023-05-17T21:40:29;6.47;;;1.40;;
34978;SDS011;21185;50.978;13.720;2023-05-17T21:45:34;2.20;;;0.80;;
34978;SDS011;21185;50.978;13.720;2023-05-17T21:50:36;4.22;;;1.05;;
34978;SDS011;21185;50.978;13.720;2023-05-17T21:55:38;4.50;;;1.27;;
34978;SDS011;21185;50.978;13.720;2023-05-17T22:01:00;8.48;;;1.25;;
34978;SDS011;21185;50.978;13.720;2023-05-17T22:06:02;3.42;;;1.33;;
34978;SDS011;21185;50.978;13.720;2023-05-17T22:11:05;8.98;;;1.55;;
34978;SDS011;21185;50.978;13.720;2023-05-17T22:16:07;5.93;;;1.40;;
34978;SDS011;21185;50.978;13.720;2023-05-17T22:21:15;5.93;;;1.23;;
34978;SDS011;21185;50.978;13.720;2023-05-17T22:26:19;4.70;;;1.00;;
34978;SDS011;21185;50.978;13.720;2023-05-17T22:31:22;5.68;;;1.60;;
34978;SDS011;21185;50.978;13.720;2023-05-17T22:36:24;3.85;;;1.42;;
34978;SDS011;21185;50.978;13.720;2023-05-17T22:41:32;3.97;;;1.00;;
34978;SDS011;21185;50.978;13.720;2023-05-17T22:46:34;4.03;;;1.25;;
34978;SDS011;21185;50.978;13.720;2023-05-17T22:51:38;3.53;;;1.05;;
34978;SDS011;21185;50.978;13.720;2023-05-17T22:56:41;13.00;;;1.73;;
34978;SDS011;21185;50.978;13.720;2023-05-17T23:01:43;5.20;;;1.35;;
34978;SDS011;21185;50.978;13.720;2023-05-17T23:06:45;4.55;;;1.25;;
34978;SDS011;21185;50.978;13.720;2023-05-17T23:11:50;9.40;;;1.48;;
34978;SDS011;21185;50.978;13.720;2023-05-17T23:16:52;1.92;;;0.80;;
34978;SDS011;21185;50.978;13.720;2023-05-17T23:21:55;5.38;;;1.25;;
34978;SDS011;21185;50.978;13.720;2023-05-17T23:27:04;6.45;;;1.10;;
34978;SDS011;21185;50.978;13.720;2023-05-17T23:32:10;4.43;;;1.40;;
34978;SDS011;21185;50.978;13.720;2023-05-17T23:37:12;3.53;;;1.55;;
34978;SDS011;21185;50.978;13.720;2023-05-17T23:42:15;5.50;;;1.25;;
34978;SDS011;21185;50.978;13.720;2023-05-17T23:47:21;4.07;;;1.25;;
34978;SDS011;21185;50.978;13.720;2023-05-17T23:52:22;3.53;;;1.38;;
34978;SDS011;21185;50.978;13.720;2023-05-17T23:57:24;2.08;;;1.23;;
